Nearby METAR Reports

 

KBED - Bedford, Massachusetts, USA
Distance from station: ENE 12mi, 20km
Updated: Thu, 02-Apr-2020 3:51am EDT
Overcast
Overcast
 Wind from NW
Wind: NW 12 mph , 19 km/h
Temperature: 41°F , 5°C
Wind Chill: 34°F , 1°C
Dew Point: 30°F , -1°C
Humidity: 66%
Barometer: 29.62 inHg , 1003 hPa
Clouds: Overcast
Visibility: 10 miles , 16 km
Cloud details: Overcast 3000 ft
2020/04/02 07:51 KBED 020751Z AUTO 32010KT 10SM OVC030 05/M01 A2962 RMK AO2 RAB27E39 SLP044 P0000 T00501011
KFIT - Fitchburg, Massachusetts, USA
Distance from station: NW 15mi, 24km
Updated: Thu, 02-Apr-2020 3:52am EDT
Overcast
Overcast
 Wind from NW
Wind: NW 12 mph , 19 km/h
Temperature: 39°F , 4°C
Wind Chill: 32°F , 0°C
Dew Point: 28°F , -2°C
Humidity: 65%
Barometer: 29.65 inHg , 1004.1 hPa
Clouds: Overcast
Visibility: 10 miles , 16 km
Cloud details: Overcast 3100 ft
2020/04/02 07:52 KFIT 020752Z AUTO 32010KT 10SM OVC031 04/M02 A2965 RMK AO2 SLP042 T00441022
 
KORH - Worcester, Massachusetts, USA
Distance from station: WSW 20mi, 32km
Updated: Thu, 02-Apr-2020 3:54am EDT
Overcast
Overcast
 Wind from NW
Wind: NW 15 mph , 24 km/h, Gust: 24 mph , 39 km/h
Temperature: 36°F , 2°C
Wind Chill: 27°F , -3°C
Dew Point: 27°F , -3°C
Humidity: 70%
Barometer: 29.61 inHg , 1002.7 hPa
Clouds: Overcast
Visibility: 10 miles , 16 km
Cloud details: Few Clouds 2300 ft
Overcast 5000 ft
2020/04/02 07:54 KORH 020754Z AUTO 32013G21KT 10SM FEW023 OVC050 02/M03 A2961 RMK AO2 SLP036 T00221028
KOWD - Norwood, Massachusetts, USA
Distance from station: SE 24mi, 39km
Updated: Thu, 02-Apr-2020 3:53am EDT
Overcast
Overcast
 Wind from NNW
Wind: NNW 7 mph , 11 km/h, Gust: 18 mph , 30 km/h
Temperature: 43°F , 6°C
Wind Chill: 39°F , 4°C
Dew Point: 30°F , -1°C
Humidity: 61%
Barometer: 29.61 inHg , 1002.7 hPa
Clouds: Overcast
Visibility: 10 miles , 16 km
Cloud details: Overcast 2600 ft
2020/04/02 07:53 KOWD 020753Z AUTO 33006G16KT 10SM OVC026 06/M01 A2961 RMK AO2 SLP027 T00561006
 
KMQE - East Milton, Massachusetts, USA
Distance from station: ESE 25mi, 40km
Updated: Thu, 02-Apr-2020 3:51am EDT

 Wind from NW
Wind: NW 12 mph , 19 km/h, Gust: 26 mph , 43 km/h
Temperature: 37°F , 3°C
Wind Chill: 29°F , -2°C
Dew Point: 32°F , 0°C
Humidity: 81%
Barometer: 29.58 inHg , 1001.7 hPa
2020/04/02 07:51 KMQE 020751Z AUTO 32010G23KT 03/00 A2958 RMK AO1 SLP030 T00280000
KASH - Nashua/Boire Fld, New Hampshire, USA
Distance from station: N 26mi, 42km
Updated: Thu, 02-Apr-2020 3:56am EDT
Overcast
Overcast
 Wind from NW
Wind: NW 13 mph , 20 km/h, Gust: 20 mph , 31 km/h
Temperature: 39°F , 4°C
Wind Chill: 31°F , -1°C
Dew Point: 30°F , -1°C
Humidity: 70%
Barometer: 29.64 inHg , 1003.7 hPa
Clouds: Overcast
Visibility: 10 miles , 16 km
Cloud details: Overcast 3100 ft
2020/04/02 07:56 KASH 020756Z AUTO 32011G17KT 10SM OVC031 04/M01 A2964 RMK AO2 SLP044 T00441006
 
KBOS - Boston, Massachusetts, USA
Distance from station: E 26mi, 42km
Updated: Thu, 02-Apr-2020 4:17am EDT
unable to load KBOS data RC=
unable to load KBOS data RC=
 
KLWM - Lawrence, Massachusetts, USA
Distance from station: NE 29mi, 47km
Updated: Thu, 02-Apr-2020 3:54am EDT
Overcast
Overcast
 Wind from NW
Wind: NW 8 mph , 13 km/h
Temperature: 39°F , 4°C
Wind Chill: 33°F , 1°C
Dew Point: 32°F , 0°C
Humidity: 75%
Barometer: 29.63 inHg , 1003.4 hPa
Clouds: Overcast
Visibility: 10 miles , 16 km
Cloud details: Mostly cloudy 3200 ft
Overcast 7500 ft
2020/04/02 07:54 KLWM 020754Z AUTO 32007KT 10SM BKN032 OVC075 04/00 A2963 RMK AO2 RAE24 SLP035 P0000 T00440000
 
KBVY - Beverly, Massachusetts, USA
Distance from station: ENE 33mi, 54km
Updated: Thu, 02-Apr-2020 3:53am EDT
Light rain, Overcast
Light rain, Overcast
 Wind from NNW
Wind: NNW 10 mph , 17 km/h
Temperature: 39°F , 4°C
Wind Chill: 32°F , 0°C
Dew Point: 36°F , 2°C
Humidity: 87%
Barometer: 29.60 inHg , 1002.4 hPa
Summary: Light rain
Clouds: Overcast
Visibility: 10 miles , 16 km
Cloud details: Overcast 2700 ft
2020/04/02 07:53 KBVY 020753Z AUTO 33009KT 10SM -RA OVC027 04/02 A2960 RMK AO2 SLP019 P0000 T00390017
KSFZ - Pawtucket, Rhode Island, USA
Distance from station: S 34mi, 54km
Updated: Thu, 02-Apr-2020 3:56am EDT
Mostly cloudy
Mostly cloudy
 Wind from NNW
Wind: NNW 15 mph , 24 km/h, Gust: 22 mph , 35 km/h
Temperature: 39°F , 4°C
Wind Chill: 31°F , -1°C
Dew Point: 30°F , -1°C
Humidity: 70%
Barometer: 29.61 inHg , 1002.7 hPa
Clouds: Mostly cloudy
Visibility: 10 miles , 16 km
Cloud details: Partly cloudy 2700 ft
Partly cloudy 3500 ft
Mostly cloudy 4300 ft
2020/04/02 07:56 KSFZ 020756Z AUTO 34013G19KT 10SM SCT027 SCT035 BKN043 04/M01 A2961 RMK AO2 SLP974 T00391011
 
KAFN - Jaffrey, New Hampshire, USA
Distance from station: NW 36mi, 59km
Updated: Thu, 02-Apr-2020 3:52am EDT
Overcast
Overcast
 Wind from N
Wind: N 8 mph , 13 km/h
Temperature: 37°F , 3°C
Wind Chill: 31°F , -1°C
Dew Point: 30°F , -1°C
Humidity: 75%
Barometer: 29.64 inHg , 1003.7 hPa
Clouds: Overcast
Visibility: 10 miles , 16 km
Cloud details: Overcast 3100 ft
2020/04/02 07:52 KAFN 020752Z AUTO 35007KT 10SM OVC031 03/M01 A2964 RMK AO2 SLP049 T00281011
KMHT - Manchester, New Hampshire, USA
Distance from station: N 37mi, 59km
Updated: Thu, 02-Apr-2020 3:53am EDT
Overcast
Overcast
 Wind from NNW
Wind: NNW 10 mph , 17 km/h
Temperature: 41°F , 5°C
Wind Chill: 35°F , 2°C
Dew Point: 30°F , -1°C
Humidity: 66%
Barometer: 29.63 inHg , 1003.4 hPa
Clouds: Overcast
Visibility: 10 miles , 16 km
Cloud details: Overcast 3300 ft
2020/04/02 07:53 KMHT 020753Z 33009KT 10SM OVC033 05/M01 A2963 RMK AO2 SLP048 T00501011
 
KORE - Orange, Massachusetts, USA
Distance from station: WNW 40mi, 65km
Updated: Thu, 02-Apr-2020 3:52am EDT
Overcast
Overcast
 Wind from NNW
Wind: NNW 13 mph , 20 km/h, Gust: 24 mph , 39 km/h
Temperature: 39°F , 4°C
Wind Chill: 31°F , -1°C
Dew Point: 28°F , -2°C
Humidity: 65%
Barometer: 29.68 inHg , 1005.1 hPa
Clouds: Overcast
Visibility: 10 miles , 16 km
Cloud details: Overcast 3700 ft
2020/04/02 07:52 KORE 020752Z AUTO 33011G21KT 10SM OVC037 04/M02 A2968 RMK AO2 SLP053 T00441017
KTAN - Taunton, Massachusetts, USA
Distance from station: SE 45mi, 72km
Updated: Thu, 02-Apr-2020 3:52am EDT
Light rain, Overcast
Light rain, Overcast
 Wind from NNW
Wind: NNW 10 mph , 17 km/h, Gust: 17 mph , 28 km/h
Temperature: 39°F , 4°C
Wind Chill: 32°F , 0°C
Dew Point: 34°F , 1°C
Humidity: 81%
Barometer: 29.59 inHg , 1002 hPa
Summary: Light rain
Clouds: Overcast
Visibility: 10 miles , 16 km
Cloud details: Overcast 2200 ft
2020/04/02 07:52 KTAN 020752Z AUTO 33009G15KT 10SM -RA OVC022 04/01 A2959 RMK AO2 RAB0654 SLP021 P0001 T00440011
 
KPVD - Providence/Green, Rhode Island, USA
Distance from station: S 48mi, 77km
Updated: Thu, 02-Apr-2020 3:51am EDT
Overcast
Overcast
 Wind from NNW
Wind: NNW 13 mph , 20 km/h, Gust: 23 mph , 37 km/h
Temperature: 43°F , 6°C
Wind Chill: 36°F , 2°C
Dew Point: 30°F , -1°C
Humidity: 61%
Barometer: 29.61 inHg , 1002.7 hPa
Clouds: Overcast
Visibility: 10 miles , 16 km
Cloud details: Overcast 5000 ft
2020/04/02 07:51 KPVD 020751Z AUTO 34011G20KT 10SM OVC050 06/M01 A2961 RMK AO2 SLP027 T00561011
KGHG - Marshfield, Massachusetts, USA
Distance from station: ESE 49mi, 79km
Updated: Thu, 02-Apr-2020 3:55am EDT
Light rain, Mostly cloudy
Light rain, Mostly cloudy
 Wind from NNW
Wind: NNW 10 mph , 17 km/h, Gust: 21 mph , 33 km/h
Temperature: 41°F , 5°C
Wind Chill: 35°F , 2°C
Dew Point: 37°F , 3°C
Humidity: 87%
Barometer: 29.58 inHg , 1001.7 hPa
Summary: Light rain
Clouds: Mostly cloudy
Visibility: 10 miles , 16 km
Cloud details: Mostly cloudy 1600 ft
2020/04/02 07:55 KGHG 020755Z AUTO 33009G18KT 10SM -RA BKN016 05/03 A2958 RMK AO2 P0003
 
KEEN - Keene/Dillant, New Hampshire, USA
Distance from station: NW 50mi, 81km
Updated: Thu, 02-Apr-2020 3:56am EDT
Overcast
Overcast
 Wind from N
Wind: N 9 mph , 15 km/h
Temperature: 39°F , 4°C
Wind Chill: 33°F , 1°C
Dew Point: 28°F , -2°C
Humidity: 65%
Barometer: 29.69 inHg , 1005.4 hPa
Clouds: Overcast
Visibility: 10 miles , 16 km
Cloud details: Overcast 2800 ft
2020/04/02 07:56 KEEN 020756Z AUTO 35008KT 10SM OVC028 04/M02 A2969 RMK AO2 SLP061 T00391017 $